sensor_id;sensor_type;location;lat;lon;timestamp;pressure;altitude;pressure_sealevel;temperature;humidity
3668;BME280;24099;47.102;15.440;2023-04-01T00:00:27;95948.00;;;6.72;100.00
3668;BME280;24099;47.102;15.440;2023-04-01T00:02:58;95954.50;;;6.54;100.00
3668;BME280;24099;47.102;15.440;2023-04-01T00:05:28;95949.72;;;6.58;100.00
3668;BME280;24099;47.102;15.440;2023-04-01T00:07:56;95946.03;;;6.52;100.00
3668;BME280;24099;47.102;15.440;2023-04-01T00:10:25;95947.69;;;6.60;100.00
3668;BME280;24099;47.102;15.440;2023-04-01T00:12:53;95941.34;;;6.48;100.00
3668;BME280;24099;47.102;15.440;2023-04-01T00:15:21;95944.84;;;6.55;100.00
3668;BME280;24099;47.102;15.440;2023-04-01T00:17:48;95938.66;;;6.41;100.00
3668;BME280;24099;47.102;15.440;2023-04-01T00:20:16;95938.97;;;6.32;100.00
3668;BME280;24099;47.102;15.440;2023-04-01T00:22:47;95944.28;;;6.38;100.00
3668;BME280;24099;47.102;15.440;2023-04-01T00:25:16;95934.84;;;6.59;100.00
3668;BME280;24099;47.102;15.440;2023-04-01T00:27:46;95933.41;;;6.56;100.00
3668;BME280;24099;47.102;15.440;2023-04-01T00:30:14;95932.78;;;6.54;100.00
3668;BME280;24099;47.102;15.440;2023-04-01T00:32:42;95932.06;;;6.45;100.00
3668;BME280;24099;47.102;15.440;2023-04-01T00:35:11;95931.88;;;6.47;100.00
3668;BME280;24099;47.102;15.440;2023-04-01T00:37:39;95931.97;;;6.53;100.00
3668;BME280;24099;47.102;15.440;2023-04-01T00:40:10;95929.28;;;6.47;100.00
3668;BME280;24099;47.102;15.440;2023-04-01T00:42:49;95931.41;;;6.79;100.00
3668;BME280;24099;47.102;15.440;2023-04-01T00:45:34;95927.63;;;6.39;100.00
3668;BME280;24099;47.102;15.440;2023-04-01T00:48:05;95915.31;;;6.40;100.00
3668;BME280;24099;47.102;15.440;2023-04-01T00:50:38;95903.66;;;6.36;100.00
3668;BME280;24099;47.102;15.440;2023-04-01T00:53:08;95903.50;;;6.44;100.00
3668;BME280;24099;47.102;15.440;2023-04-01T00:55:39;95904.22;;;6.52;100.00
3668;BME280;24099;47.102;15.440;2023-04-01T00:58:14;95889.72;;;6.29;100.00
3668;BME280;24099;47.102;15.440;2023-04-01T01:00:45;95893.38;;;6.13;100.00
3668;BME280;24099;47.102;15.440;2023-04-01T01:03:14;95892.44;;;6.20;100.00
3668;BME280;24099;47.102;15.440;2023-04-01T01:06:00;95896.03;;;6.19;100.00
3668;BME280;24099;47.102;15.440;2023-04-01T01:08:43;95896.63;;;6.15;100.00
3668;BME280;24099;47.102;15.440;2023-04-01T01:11:19;95894.91;;;6.07;100.00
3668;BME280;24099;47.102;15.440;2023-04-01T01:13:58;95879.94;;;5.95;100.00
3668;BME280;24099;47.102;15.440;2023-04-01T01:16:30;95886.31;;;5.92;100.00
3668;BME280;24099;47.102;15.440;2023-04-01T01:19:16;95879.81;;;5.88;100.00
3668;BME280;24099;47.102;15.440;2023-04-01T01:22:18;95878.19;;;5.87;100.00
3668;BME280;24099;47.102;15.440;2023-04-01T01:24:58;95881.75;;;5.79;100.00
3668;BME280;24099;47.102;15.440;2023-04-01T01:27:32;95888.50;;;5.74;100.00
3668;BME280;24099;47.102;15.440;2023-04-01T01:33:31;95862.97;;;5.54;100.00
3668;BME280;24099;47.102;15.440;2023-04-01T01:36:08;95878.88;;;5.74;100.00
3668;BME280;24099;47.102;15.440;2023-04-01T01:38:40;95869.97;;;5.69;100.00
3668;BME280;24099;47.102;15.440;2023-04-01T01:41:10;95861.09;;;5.48;100.00
3668;BME280;24099;47.102;15.440;2023-04-01T01:43:43;95864.28;;;5.65;100.00
3668;BME280;24099;47.102;15.440;2023-04-01T01:46:17;95875.28;;;5.75;100.00
3668;BME280;24099;47.102;15.440;2023-04-01T01:48:51;95861.88;;;5.64;100.00
3668;BME280;24099;47.102;15.440;2023-04-01T01:51:22;95863.84;;;5.62;100.00
3668;BME280;24099;47.102;15.440;2023-04-01T01:53:50;95861.50;;;5.67;100.00
3668;BME280;24099;47.102;15.440;2023-04-01T01:56:22;95860.19;;;5.41;100.00
3668;BME280;24099;47.102;15.440;2023-04-01T01:58:59;95847.53;;;5.24;100.00
3668;BME280;24099;47.102;15.440;2023-04-01T02:01:30;95847.16;;;5.27;100.00
3668;BME280;24099;47.102;15.440;2023-04-01T02:04:07;95838.53;;;5.26;100.00
3668;BME280;24099;47.102;15.440;2023-04-01T02:06:41;95838.72;;;5.25;100.00
3668;BME280;24099;47.102;15.440;2023-04-01T02:09:11;95845.91;;;5.37;100.00
3668;BME280;24099;47.102;15.440;2023-04-01T02:11:43;95843.38;;;5.44;100.00
3668;BME280;24099;47.102;15.440;2023-04-01T02:14:16;95841.56;;;5.44;100.00
3668;BME280;24099;47.102;15.440;2023-04-01T02:16:49;95842.19;;;5.46;100.00
3668;BME280;24099;47.102;15.440;2023-04-01T02:19:19;95843.19;;;5.45;100.00
3668;BME280;24099;47.102;15.440;2023-04-01T02:21:55;95847.25;;;5.48;100.00
3668;BME280;24099;47.102;15.440;2023-04-01T02:24:26;95841.59;;;5.30;100.00
3668;BME280;24099;47.102;15.440;2023-04-01T02:26:55;95844.03;;;5.31;100.00
3668;BME280;24099;47.102;15.440;2023-04-01T02:29:24;95838.50;;;5.41;100.00
3668;BME280;24099;47.102;15.440;2023-04-01T02:31:55;95842.50;;;5.37;100.00
3668;BME280;24099;47.102;15.440;2023-04-01T02:34:24;95841.88;;;5.35;100.00
3668;BME280;24099;47.102;15.440;2023-04-01T02:36:56;95846.47;;;5.33;100.00
3668;BME280;24099;47.102;15.440;2023-04-01T02:39:30;95852.84;;;5.01;100.00
3668;BME280;24099;47.102;15.440;2023-04-01T02:41:58;95850.59;;;5.12;100.00
3668;BME280;24099;47.102;15.440;2023-04-01T02:44:27;95855.91;;;5.34;100.00
3668;BME280;24099;47.102;15.440;2023-04-01T02:46:57;95858.63;;;5.11;100.00
3668;BME280;24099;47.102;15.440;2023-04-01T02:49:25;95847.97;;;5.27;100.00
3668;BME280;24099;47.102;15.440;2023-04-01T02:51:54;95860.75;;;5.07;100.00
3668;BME280;24099;47.102;15.440;2023-04-01T02:54:23;95857.16;;;5.23;100.00
3668;BME280;24099;47.102;15.440;2023-04-01T02:56:51;95856.47;;;5.14;100.00
3668;BME280;24099;47.102;15.440;2023-04-01T02:59:20;95854.03;;;5.13;100.00
3668;BME280;24099;47.102;15.440;2023-04-01T03:01:47;95860.84;;;5.14;100.00
3668;BME280;24099;47.102;15.440;2023-04-01T03:04:15;95855.72;;;5.20;100.00
3668;BME280;24099;47.102;15.440;2023-04-01T03:06:43;95846.72;;;5.23;100.00
3668;BME280;24099;47.102;15.440;2023-04-01T03:09:12;95851.50;;;5.34;100.00
3668;BME280;24099;47.102;15.440;2023-04-01T03:11:40;95844.22;;;5.30;100.00
3668;BME280;24099;47.102;15.440;2023-04-01T03:14:10;95850.69;;;5.34;100.00
3668;BME280;24099;47.102;15.440;2023-04-01T03:16:41;95856.44;;;5.29;100.00
3668;BME280;24099;47.102;15.440;2023-04-01T03:19:08;95858.69;;;5.32;100.00
3668;BME280;24099;47.102;15.440;2023-04-01T03:21:36;95858.78;;;5.24;100.00
3668;BME280;24099;47.102;15.440;2023-04-01T03:24:08;95867.97;;;5.35;100.00
3668;BME280;24099;47.102;15.440;2023-04-01T03:26:37;95865.97;;;5.37;100.00
3668;BME280;24099;47.102;15.440;2023-04-01T03:29:05;95880.28;;;5.26;100.00
3668;BME280;24099;47.102;15.440;2023-04-01T03:31:33;95880.09;;;5.28;100.00
3668;BME280;24099;47.102;15.440;2023-04-01T03:34:00;95877.03;;;5.24;100.00
3668;BME280;24099;47.102;15.440;2023-04-01T03:36:28;95883.88;;;5.25;100.00
3668;BME280;24099;47.102;15.440;2023-04-01T03:38:56;95884.47;;;5.42;100.00
3668;BME280;24099;47.102;15.440;2023-04-01T03:41:37;95880.53;;;5.31;100.00
3668;BME280;24099;47.102;15.440;2023-04-01T03:44:05;95886.94;;;5.29;100.00
3668;BME280;24099;47.102;15.440;2023-04-01T03:46:37;95896.84;;;5.33;100.00
3668;BME280;24099;47.102;15.440;2023-04-01T03:49:07;95886.56;;;5.46;100.00
3668;BME280;24099;47.102;15.440;2023-04-01T03:51:38;95891.69;;;5.40;100.00
3668;BME280;24099;47.102;15.440;2023-04-01T03:54:10;95902.50;;;5.37;100.00
3668;BME280;24099;47.102;15.440;2023-04-01T03:56:42;95899.78;;;5.45;100.00
3668;BME280;24099;47.102;15.440;2023-04-01T03:59:11;95902.84;;;5.34;100.00
3668;BME280;24099;47.102;15.440;2023-04-01T04:01:39;95894.47;;;5.53;100.00
3668;BME280;24099;47.102;15.440;2023-04-01T04:04:10;95895.00;;;5.63;100.00
3668;BME280;24099;47.102;15.440;2023-04-01T04:06:39;95889.16;;;5.46;100.00
3668;BME280;24099;47.102;15.440;2023-04-01T04:09:07;95910.16;;;5.38;100.00
3668;BME280;24099;47.102;15.440;2023-04-01T04:11:35;95915.78;;;5.71;100.00
3668;BME280;24099;47.102;15.440;2023-04-01T04:14:04;95906.59;;;5.75;100.00
3668;BME280;24099;47.102;15.440;2023-04-01T04:16:34;95907.13;;;5.71;100.00
3668;BME280;24099;47.102;15.440;2023-04-01T04:19:02;95903.91;;;5.69;100.00
3668;BME280;24099;47.102;15.440;2023-04-01T04:21:30;95906.16;;;5.72;100.00
3668;BME280;24099;47.102;15.440;2023-04-01T04:24:00;95902.63;;;5.65;100.00
3668;BME280;24099;47.102;15.440;2023-04-01T04:26:33;95899.66;;;5.68;100.00
3668;BME280;24099;47.102;15.440;2023-04-01T04:29:06;95913.25;;;5.63;100.00
3668;BME280;24099;47.102;15.440;2023-04-01T04:31:34;95911.63;;;5.62;100.00
3668;BME280;24099;47.102;15.440;2023-04-01T04:34:02;95911.63;;;5.62;100.00
3668;BME280;24099;47.102;15.440;2023-04-01T04:36:35;95914.44;;;5.61;100.00
3668;BME280;24099;47.102;15.440;2023-04-01T04:39:03;95908.69;;;5.50;100.00
3668;BME280;24099;47.102;15.440;2023-04-01T04:41:33;95902.03;;;5.48;100.00
3668;BME280;24099;47.102;15.440;2023-04-01T04:44:03;95914.09;;;5.49;100.00
3668;BME280;24099;47.102;15.440;2023-04-01T04:46:33;95907.06;;;5.49;100.00
3668;BME280;24099;47.102;15.440;2023-04-01T04:49:12;95906.16;;;5.42;100.00
3668;BME280;24099;47.102;15.440;2023-04-01T04:51:41;95910.13;;;5.24;100.00
3668;BME280;24099;47.102;15.440;2023-04-01T04:54:10;95916.09;;;5.32;100.00
3668;BME280;24099;47.102;15.440;2023-04-01T04:57:07;95902.66;;;5.50;100.00
3668;BME280;24099;47.102;15.440;2023-04-01T04:59:45;95903.03;;;5.47;100.00
3668;BME280;24099;47.102;15.440;2023-04-01T05:02:26;95905.38;;;5.27;100.00
3668;BME280;24099;47.102;15.440;2023-04-01T05:04:58;95903.47;;;5.50;100.00
3668;BME280;24099;47.102;15.440;2023-04-01T05:07:27;95908.53;;;5.37;100.00
3668;BME280;24099;47.102;15.440;2023-04-01T05:09:56;95906.34;;;5.26;100.00
3668;BME280;24099;47.102;15.440;2023-04-01T05:12:25;95903.66;;;5.34;100.00
3668;BME280;24099;47.102;15.440;2023-04-01T05:14:59;95901.50;;;5.52;100.00
3668;BME280;24099;47.102;15.440;2023-04-01T05:17:28;95905.09;;;5.51;100.00
3668;BME280;24099;47.102;15.440;2023-04-01T05:19:58;95902.66;;;5.50;100.00
3668;BME280;24099;47.102;15.440;2023-04-01T05:22:27;95908.69;;;5.50;100.00
3668;BME280;24099;47.102;15.440;2023-04-01T05:24:59;95912.09;;;5.66;100.00
3668;BME280;24099;47.102;15.440;2023-04-01T05:27:29;95913.84;;;5.80;100.00
3668;BME280;24099;47.102;15.440;2023-04-01T05:29:57;95918.13;;;5.66;100.00
3668;BME280;24099;47.102;15.440;2023-04-01T05:32:40;95911.28;;;5.65;100.00
3668;BME280;24099;47.102;15.440;2023-04-01T05:35:21;95911.38;;;5.72;100.00
3668;BME280;24099;47.102;15.440;2023-04-01T05:37:51;95921.28;;;5.76;100.00
3668;BME280;24099;47.102;15.440;2023-04-01T05:40:21;95913.63;;;5.75;100.00
3668;BME280;24099;47.102;15.440;2023-04-01T05:42:49;95915.94;;;5.84;100.00
3668;BME280;24099;47.102;15.440;2023-04-01T05:45:18;95920.28;;;5.92;100.00
3668;BME280;24099;47.102;15.440;2023-04-01T05:48:22;95921.09;;;5.78;100.00
3668;BME280;24099;47.102;15.440;2023-04-01T05:50:50;95918.84;;;5.90;100.00
3668;BME280;24099;47.102;15.440;2023-04-01T05:53:17;95924.50;;;5.93;100.00
3668;BME280;24099;47.102;15.440;2023-04-01T05:55:45;95923.09;;;6.12;100.00
3668;BME280;24099;47.102;15.440;2023-04-01T05:58:17;95919.06;;;6.09;100.00
3668;BME280;24099;47.102;15.440;2023-04-01T06:00:48;95910.16;;;6.04;100.00
3668;BME280;24099;47.102;15.440;2023-04-01T06:03:19;95918.94;;;6.17;100.00
3668;BME280;24099;47.102;15.440;2023-04-01T06:05:48;95910.72;;;6.20;100.00
3668;BME280;24099;47.102;15.440;2023-04-01T06:08:18;95921.59;;;6.24;100.00
3668;BME280;24099;47.102;15.440;2023-04-01T06:11:00;95924.94;;;6.33;100.00
3668;BME280;24099;47.102;15.440;2023-04-01T06:13:53;95919.81;;;6.46;100.00
3668;BME280;24099;47.102;15.440;2023-04-01T06:16:39;95912.78;;;6.46;100.00
3668;BME280;24099;47.102;15.440;2023-04-01T06:19:32;95912.59;;;6.48;100.00
3668;BME280;24099;47.102;15.440;2023-04-01T06:28:34;95920.72;;;6.60;100.00
3668;BME280;24099;47.102;15.440;2023-04-01T06:31:14;95922.06;;;6.70;100.00
3668;BME280;24099;47.102;15.440;2023-04-01T06:33:53;95922.78;;;6.85;100.00
3668;BME280;24099;47.102;15.440;2023-04-01T06:39:44;95924.34;;;7.08;100.00
3668;BME280;24099;47.102;15.440;2023-04-01T06:42:33;95914.38;;;7.18;100.00
3668;BME280;24099;47.102;15.440;2023-04-01T06:45:28;95920.34;;;7.12;100.00
3668;BME280;24099;47.102;15.440;2023-04-01T06:48:33;95917.00;;;7.18;100.00
3668;BME280;24099;47.102;15.440;2023-04-01T06:51:47;95923.84;;;7.19;100.00
3668;BME280;24099;47.102;15.440;2023-04-01T06:54:42;95925.28;;;7.28;100.00
3668;BME280;24099;47.102;15.440;2023-04-01T06:57:52;95930.97;;;7.32;100.00
3668;BME280;24099;47.102;15.440;2023-04-01T07:00:29;95942.84;;;7.34;100.00
3668;BME280;24099;47.102;15.440;2023-04-01T07:03:05;95933.63;;;7.38;100.00
3668;BME280;24099;47.102;15.440;2023-04-01T07:05:36;95940.47;;;7.39;100.00
3668;BME280;24099;47.102;15.440;2023-04-01T07:08:09;95934.44;;;7.45;100.00
3668;BME280;24099;47.102;15.440;2023-04-01T07:10:45;95943.22;;;7.59;100.00
3668;BME280;24099;47.102;15.440;2023-04-01T07:13:36;95941.06;;;7.76;100.00
3668;BME280;24099;47.102;15.440;2023-04-01T07:16:21;95934.06;;;7.89;100.00
3668;BME280;24099;47.102;15.440;2023-04-01T07:18:56;95936.63;;;8.30;100.00
3668;BME280;24099;47.102;15.440;2023-04-01T07:21:56;95940.84;;;8.25;100.00
3668;BME280;24099;47.102;15.440;2023-04-01T07:24:45;95937.06;;;8.41;100.00
3668;BME280;24099;47.102;15.440;2023-04-01T07:27:15;95927.41;;;8.48;100.00
3668;BME280;24099;47.102;15.440;2023-04-01T07:29:47;95922.59;;;8.58;100.00
3668;BME280;24099;47.102;15.440;2023-04-01T07:32:22;95909.69;;;8.70;100.00
3668;BME280;24099;47.102;15.440;2023-04-01T07:35:09;95902.03;;;8.88;100.00
3668;BME280;24099;47.102;15.440;2023-04-01T07:37:46;95883.03;;;9.12;100.00
3668;BME280;24099;47.102;15.440;2023-04-01T07:40:26;95871.09;;;9.23;100.00
3668;BME280;24099;47.102;15.440;2023-04-01T07:43:09;95871.44;;;9.46;100.00
3668;BME280;24099;47.102;15.440;2023-04-01T07:45:57;95852.03;;;9.47;100.00
3668;BME280;24099;47.102;15.440;2023-04-01T07:48:33;95852.34;;;9.71;100.00
3668;BME280;24099;47.102;15.440;2023-04-01T07:51:10;95857.28;;;9.98;100.00
3668;BME280;24099;47.102;15.440;2023-04-01T07:53:47;95847.03;;;10.28;100.00
3668;BME280;24099;47.102;15.440;2023-04-01T07:56:21;95830.81;;;10.31;100.00
3668;BME280;24099;47.102;15.440;2023-04-01T07:58:56;95833.78;;;10.42;100.00
3668;BME280;24099;47.102;15.440;2023-04-01T08:01:56;95823.69;;;10.39;100.00
3668;BME280;24099;47.102;15.440;2023-04-01T08:04:41;95833.41;;;10.63;100.00
3668;BME280;24099;47.102;15.440;2023-04-01T08:07:15;95821.91;;;10.82;100.00
3668;BME280;24099;47.102;15.440;2023-04-01T08:10:09;95815.00;;;11.06;100.00
3668;BME280;24099;47.102;15.440;2023-04-01T08:13:06;95812.66;;;10.98;100.00
3668;BME280;24099;47.102;15.440;2023-04-01T08:16:11;95806.50;;;11.40;100.00
3668;BME280;24099;47.102;15.440;2023-04-01T08:18:55;95809.78;;;11.72;100.00
3668;BME280;24099;47.102;15.440;2023-04-01T08:21:31;95813.22;;;11.73;100.00
3668;BME280;24099;47.102;15.440;2023-04-01T08:24:06;95817.06;;;11.59;100.00
3668;BME280;24099;47.102;15.440;2023-04-01T08:26:40;95818.72;;;11.90;100.00
3668;BME280;24099;47.102;15.440;2023-04-01T08:29:15;95815.06;;;11.91;100.00
3668;BME280;24099;47.102;15.440;2023-04-01T08:31:48;95811.84;;;11.89;100.00
3668;BME280;24099;47.102;15.440;2023-04-01T08:34:21;95804.69;;;11.78;100.00
3668;BME280;24099;47.102;15.440;2023-04-01T08:37:09;95811.31;;;11.98;100.00
3668;BME280;24099;47.102;15.440;2023-04-01T08:39:44;95812.63;;;11.89;100.00
3668;BME280;24099;47.102;15.440;2023-04-01T08:45:34;95820.34;;;12.02;100.00
3668;BME280;24099;47.102;15.440;2023-04-01T08:48:16;95815.38;;;12.24;100.00
3668;BME280;24099;47.102;15.440;2023-04-01T08:54:06;95819.81;;;12.54;100.00
3668;BME280;24099;47.102;15.440;2023-04-01T08:56:47;95816.72;;;12.80;100.00
3668;BME280;24099;47.102;15.440;2023-04-01T08:59:37;95819.47;;;12.62;100.00
3668;BME280;24099;47.102;15.440;2023-04-01T09:06:12;95824.56;;;12.75;100.00
3668;BME280;24099;47.102;15.440;2023-04-01T09:15:20;95835.38;;;12.97;100.00
3668;BME280;24099;47.102;15.440;2023-04-01T09:18:21;95842.47;;;12.85;100.00
3668;BME280;24099;47.102;15.440;2023-04-01T09:21:14;95841.66;;;12.84;100.00
3668;BME280;24099;47.102;15.440;2023-04-01T09:26:51;95832.03;;;13.25;100.00
3668;BME280;24099;47.102;15.440;2023-04-01T09:29:47;95842.72;;;13.30;100.00
3668;BME280;24099;47.102;15.440;2023-04-01T09:32:46;95836.75;;;13.34;100.00
3668;BME280;24099;47.102;15.440;2023-04-01T09:35:36;95828.56;;;13.48;100.00
3668;BME280;24099;47.102;15.440;2023-04-01T09:38:20;95830.47;;;13.64;100.00
3668;BME280;24099;47.102;15.440;2023-04-01T09:40:56;95833.34;;;13.62;100.00
3668;BME280;24099;47.102;15.440;2023-04-01T09:43:56;95831.63;;;13.68;100.00
3668;BME280;24099;47.102;15.440;2023-04-01T09:46:37;95833.41;;;13.79;100.00
3668;BME280;24099;47.102;15.440;2023-04-01T09:52:29;95834.78;;;13.82;100.00
3668;BME280;24099;47.102;15.440;2023-04-01T09:55:39;95836.56;;;13.64;100.00
3668;BME280;24099;47.102;15.440;2023-04-01T09:58:40;95836.50;;;13.88;100.00
3668;BME280;24099;47.102;15.440;2023-04-01T10:02:21;95832.44;;;14.25;100.00
3668;BME280;24099;47.102;15.440;2023-04-01T10:05:35;95830.94;;;14.01;100.00
3668;BME280;24099;47.102;15.440;2023-04-01T10:11:44;95833.69;;;14.06;96.62
3668;BME280;24099;47.102;15.440;2023-04-01T10:14:45;95840.28;;;14.20;100.00
3668;BME280;24099;47.102;15.440;2023-04-01T10:17:48;95844.47;;;14.16;100.00
3668;BME280;24099;47.102;15.440;2023-04-01T10:24:11;95846.63;;;14.19;99.90
3668;BME280;24099;47.102;15.440;2023-04-01T10:36:55;95848.34;;;13.85;82.05
3668;BME280;24099;47.102;15.440;2023-04-01T10:40:07;95840.00;;;14.05;84.00
3668;BME280;24099;47.102;15.440;2023-04-01T10:43:52;95835.53;;;14.34;89.87
3668;BME280;24099;47.102;15.440;2023-04-01T10:49:44;95841.38;;;14.36;86.57
3668;BME280;24099;47.102;15.440;2023-04-01T10:52:46;95835.03;;;14.37;83.87
3668;BME280;24099;47.102;15.440;2023-04-01T10:56:18;95833.41;;;14.47;86.47
3668;BME280;24099;47.102;15.440;2023-04-01T10:59:32;95842.09;;;14.31;82.73
3668;BME280;24099;47.102;15.440;2023-04-01T11:06:20;95837.34;;;14.62;82.84
3668;BME280;24099;47.102;15.440;2023-04-01T11:18:42;95845.22;;;14.57;81.49
3668;BME280;24099;47.102;15.440;2023-04-01T11:21:57;95836.06;;;14.64;81.32
3668;BME280;24099;47.102;15.440;2023-04-01T11:25:09;95840.06;;;14.50;80.52
3668;BME280;24099;47.102;15.440;2023-04-01T11:28:11;95838.41;;;14.32;79.55
3668;BME280;24099;47.102;15.440;2023-04-01T11:31:04;95837.47;;;14.38;79.04
3668;BME280;24099;47.102;15.440;2023-04-01T11:33:45;95838.53;;;14.26;79.20
3668;BME280;24099;47.102;15.440;2023-04-01T11:36:24;95842.19;;;14.08;78.95
3668;BME280;24099;47.102;15.440;2023-04-01T11:39:11;95839.38;;;13.98;81.15
3668;BME280;24099;47.102;15.440;2023-04-01T11:42:15;95841.34;;;14.47;81.34
3668;BME280;24099;47.102;15.440;2023-04-01T11:45:15;95840.63;;;14.52;81.20
3668;BME280;24099;47.102;15.440;2023-04-01T11:47:57;95826.59;;;14.52;81.09
3668;BME280;24099;47.102;15.440;2023-04-01T11:50:42;95823.00;;;14.58;79.65
3668;BME280;24099;47.102;15.440;2023-04-01T11:53:22;95826.69;;;14.73;79.35
3668;BME280;24099;47.102;15.440;2023-04-01T11:55:56;95825.41;;;14.76;80.58
3668;BME280;24099;47.102;15.440;2023-04-01T12:01:53;95832.09;;;14.22;77.63
3668;BME280;24099;47.102;15.440;2023-04-01T12:04:43;95827.25;;;14.75;77.58
3668;BME280;24099;47.102;15.440;2023-04-01T12:07:36;95824.00;;;15.07;79.53
3668;BME280;24099;47.102;15.440;2023-04-01T12:10:13;95826.66;;;14.90;74.26
3668;BME280;24099;47.102;15.440;2023-04-01T12:12:49;95827.94;;;14.88;74.76
3668;BME280;24099;47.102;15.440;2023-04-01T12:15:24;95828.81;;;15.10;75.62
3668;BME280;24099;47.102;15.440;2023-04-01T12:17:57;95832.78;;;14.74;73.24
3668;BME280;24099;47.102;15.440;2023-04-01T12:20:40;95829.88;;;14.92;75.65
3668;BME280;24099;47.102;15.440;2023-04-01T12:23:41;95829.53;;;15.05;74.37
3668;BME280;24099;47.102;15.440;2023-04-01T12:26:26;95828.56;;;15.50;73.94
3668;BME280;24099;47.102;15.440;2023-04-01T12:29:13;95825.50;;;15.20;77.53
3668;BME280;24099;47.102;15.440;2023-04-01T12:31:53;95820.75;;;15.22;75.02
3668;BME280;24099;47.102;15.440;2023-04-01T12:37:35;95817.69;;;15.30;75.13
3668;BME280;24099;47.102;15.440;2023-04-01T12:40:36;95828.75;;;15.43;73.64
3668;BME280;24099;47.102;15.440;2023-04-01T12:43:34;95818.78;;;15.12;71.94
3668;BME280;24099;47.102;15.440;2023-04-01T12:46:15;95827.66;;;15.23;72.74
3668;BME280;24099;47.102;15.440;2023-04-01T12:49:06;95822.94;;;15.25;72.02
3668;BME280;24099;47.102;15.440;2023-04-01T12:51:55;95812.53;;;15.40;72.49
3668;BME280;24099;47.102;15.440;2023-04-01T12:55:01;95806.13;;;14.64;72.38
3668;BME280;24099;47.102;15.440;2023-04-01T13:00:45;95805.84;;;15.15;71.95
3668;BME280;24099;47.102;15.440;2023-04-01T13:03:30;95797.94;;;15.37;71.86
3668;BME280;24099;47.102;15.440;2023-04-01T13:06:25;95796.19;;;15.26;69.30
3668;BME280;24099;47.102;15.440;2023-04-01T13:09:01;95796.06;;;14.99;71.46
3668;BME280;24099;47.102;15.440;2023-04-01T13:11:40;95797.66;;;15.00;71.60
3668;BME280;24099;47.102;15.440;2023-04-01T13:14:20;95789.06;;;15.10;69.92
3668;BME280;24099;47.102;15.440;2023-04-01T13:16:56;95784.97;;;15.02;69.49
3668;BME280;24099;47.102;15.440;2023-04-01T13:19:30;95781.47;;;14.80;69.57
3668;BME280;24099;47.102;15.440;2023-04-01T13:22:06;95784.78;;;15.26;71.87
3668;BME280;24099;47.102;15.440;2023-04-01T13:24:44;95781.28;;;15.03;70.24
3668;BME280;24099;47.102;15.440;2023-04-01T13:27:18;95788.22;;;14.88;71.15
3668;BME280;24099;47.102;15.440;2023-04-01T13:30:02;95783.88;;;14.98;71.40
3668;BME280;24099;47.102;15.440;2023-04-01T13:32:39;95780.66;;;14.79;69.47
3668;BME280;24099;47.102;15.440;2023-04-01T13:35:20;95788.53;;;15.30;71.08
3668;BME280;24099;47.102;15.440;2023-04-01T13:38:00;95782.88;;;15.04;68.38
3668;BME280;24099;47.102;15.440;2023-04-01T13:40:42;95770.38;;;15.00;67.49
3668;BME280;24099;47.102;15.440;2023-04-01T13:43:16;95775.69;;;15.22;68.57
3668;BME280;24099;47.102;15.440;2023-04-01T13:46:08;95768.00;;;15.42;68.21
3668;BME280;24099;47.102;15.440;2023-04-01T13:48:58;95776.91;;;15.31;66.75
3668;BME280;24099;47.102;15.440;2023-04-01T13:51:51;95771.00;;;15.67;65.23
3668;BME280;24099;47.102;15.440;2023-04-01T13:55:04;95766.16;;;15.42;64.25
3668;BME280;24099;47.102;15.440;2023-04-01T13:57:48;95775.53;;;15.28;66.49
3668;BME280;24099;47.102;15.440;2023-04-01T14:00:38;95767.78;;;15.65;66.23
3668;BME280;24099;47.102;15.440;2023-04-01T14:03:32;95757.44;;;15.64;63.19
3668;BME280;24099;47.102;15.440;2023-04-01T14:06:31;95756.59;;;15.58;65.09
3668;BME280;24099;47.102;15.440;2023-04-01T14:09:44;95752.91;;;15.64;61.93
3668;BME280;24099;47.102;15.440;2023-04-01T14:12:25;95745.69;;;15.81;65.17
3668;BME280;24099;47.102;15.440;2023-04-01T14:15:09;95746.97;;;16.06;63.43
3668;BME280;24099;47.102;15.440;2023-04-01T14:17:59;95750.56;;;15.68;61.08
3668;BME280;24099;47.102;15.440;2023-04-01T14:20:39;95738.41;;;15.50;60.56
3668;BME280;24099;47.102;15.440;2023-04-01T14:26:19;95739.31;;;15.56;61.48
3668;BME280;24099;47.102;15.440;2023-04-01T14:28:56;95734.56;;;15.84;60.71
3668;BME280;24099;47.102;15.440;2023-04-01T14:31:43;95732.38;;;15.76;58.46
3668;BME280;24099;47.102;15.440;2023-04-01T14:34:28;95733.47;;;15.80;61.39
3668;BME280;24099;47.102;15.440;2023-04-01T14:37:12;95735.72;;;15.94;59.33
3668;BME280;24099;47.102;15.440;2023-04-01T14:40:19;95732.63;;;15.75;60.92
3668;BME280;24099;47.102;15.440;2023-04-01T14:43:21;95726.31;;;16.08;60.36
3668;BME280;24099;47.102;15.440;2023-04-01T14:48:52;95732.31;;;15.71;66.03
3668;BME280;24099;47.102;15.440;2023-04-01T14:51:29;95732.97;;;15.57;62.79
3668;BME280;24099;47.102;15.440;2023-04-01T14:54:06;95730.16;;;15.46;59.40
3668;BME280;24099;47.102;15.440;2023-04-01T14:56:38;95726.50;;;15.52;61.18
3668;BME280;24099;47.102;15.440;2023-04-01T14:59:14;95722.44;;;15.45;60.21
3668;BME280;24099;47.102;15.440;2023-04-01T15:01:50;95715.59;;;15.71;60.73
3668;BME280;24099;47.102;15.440;2023-04-01T15:04:41;95721.78;;;15.81;57.97
3668;BME280;24099;47.102;15.440;2023-04-01T15:07:27;95727.84;;;16.04;60.04
3668;BME280;24099;47.102;15.440;2023-04-01T15:10:31;95719.56;;;15.95;56.79
3668;BME280;24099;47.102;15.440;2023-04-01T15:13:12;95715.47;;;15.61;57.84
3668;BME280;24099;47.102;15.440;2023-04-01T15:15:57;95718.00;;;15.72;58.41
3668;BME280;24099;47.102;15.440;2023-04-01T15:18:33;95715.00;;;15.64;57.41
3668;BME280;24099;47.102;15.440;2023-04-01T15:21:19;95707.38;;;15.99;61.21
3668;BME280;24099;47.102;15.440;2023-04-01T15:24:00;95705.63;;;16.10;57.01
3668;BME280;24099;47.102;15.440;2023-04-01T15:27:00;95709.94;;;16.16;54.96
3668;BME280;24099;47.102;15.440;2023-04-01T15:32:28;95711.94;;;16.04;56.34
3668;BME280;24099;47.102;15.440;2023-04-01T15:35:09;95713.94;;;15.92;56.38